sensor_id;sensor_type;location;lat;lon;timestamp;pressure;altitude;pressure_sealevel;temperature
59339;BMP280;45117;50.960;5.500;2023-04-15T13:29:42;100549.75;;;18.30
59339;BMP280;45117;50.960;5.500;2023-04-15T13:32:08;100562.31;;;17.54
59339;BMP280;45117;50.960;5.500;2023-04-15T13:34:34;100574.19;;;17.66
59339;BMP280;45117;50.960;5.500;2023-04-15T13:37:05;100571.66;;;17.90
59339;BMP280;45117;50.960;5.500;2023-04-15T13:39:32;100573.03;;;16.55
59339;BMP280;45117;50.960;5.500;2023-04-15T13:41:58;100569.81;;;17.01
59339;BMP280;45117;50.960;5.500;2023-04-15T13:44:25;100571.47;;;17.57
59339;BMP280;45117;50.960;5.500;2023-04-15T13:46:53;100584.69;;;17.36
59339;BMP280;45117;50.960;5.500;2023-04-15T13:49:19;100588.31;;;17.24
59339;BMP280;45117;50.960;5.500;2023-04-15T13:51:46;100597.28;;;16.81
59339;BMP280;45117;50.960;5.500;2023-04-15T13:54:12;100584.84;;;16.93
59339;BMP280;45117;50.960;5.500;2023-04-15T13:56:39;100585.72;;;16.90
59339;BMP280;45117;50.960;5.500;2023-04-15T13:59:05;100592.91;;;17.55
59339;BMP280;45117;50.960;5.500;2023-04-15T14:01:33;100601.59;;;17.40
59339;BMP280;45117;50.960;5.500;2023-04-15T14:04:01;100598.31;;;17.45
59339;BMP280;45117;50.960;5.500;2023-04-15T14:06:29;100597.56;;;17.45
59339;BMP280;45117;50.960;5.500;2023-04-15T14:08:56;100604.84;;;17.17
59339;BMP280;45117;50.960;5.500;2023-04-15T14:11:22;100617.97;;;17.19
59339;BMP280;45117;50.960;5.500;2023-04-15T14:13:49;100621.69;;;16.59
59339;BMP280;45117;50.960;5.500;2023-04-15T14:16:15;100609.59;;;16.51
59339;BMP280;45117;50.960;5.500;2023-04-15T14:18:43;100632.03;;;16.30
59339;BMP280;45117;50.960;5.500;2023-04-15T14:21:11;100621.91;;;16.08
59339;BMP280;45117;50.960;5.500;2023-04-15T14:23:37;100623.97;;;16.39
59339;BMP280;45117;50.960;5.500;2023-04-15T14:26:04;100638.00;;;16.24
59339;BMP280;45117;50.960;5.500;2023-04-15T14:28:30;100633.31;;;16.03
59339;BMP280;45117;50.960;5.500;2023-04-15T14:30:57;100640.19;;;16.51
59339;BMP280;45117;50.960;5.500;2023-04-15T14:33:23;100636.53;;;16.67
59339;BMP280;45117;50.960;5.500;2023-04-15T14:35:50;100627.72;;;16.85
59339;BMP280;45117;50.960;5.500;2023-04-15T14:38:18;100633.09;;;16.32
59339;BMP280;45117;50.960;5.500;2023-04-15T14:40:46;100655.78;;;16.26
59339;BMP280;45117;50.960;5.500;2023-04-15T14:43:13;100679.03;;;16.36
59339;BMP280;45117;50.960;5.500;2023-04-15T14:45:40;100649.38;;;16.54
59339;BMP280;45117;50.960;5.500;2023-04-15T14:48:06;100639.38;;;16.42
59339;BMP280;45117;50.960;5.500;2023-04-15T14:50:34;100648.81;;;16.59
59339;BMP280;45117;50.960;5.500;2023-04-15T14:53:00;100655.97;;;17.19
59339;BMP280;45117;50.960;5.500;2023-04-15T14:55:28;100646.75;;;17.56
59339;BMP280;45117;50.960;5.500;2023-04-15T14:57:55;100665.22;;;16.77
59339;BMP280;45117;50.960;5.500;2023-04-15T15:00:21;100673.00;;;17.19
59339;BMP280;45117;50.960;5.500;2023-04-15T15:02:48;100670.63;;;16.55
59339;BMP280;45117;50.960;5.500;2023-04-15T15:05:14;100671.38;;;16.56
59339;BMP280;45117;50.960;5.500;2023-04-15T15:07:41;100677.94;;;16.46
59339;BMP280;45117;50.960;5.500;2023-04-15T15:10:08;100692.81;;;16.41
59339;BMP280;45117;50.960;5.500;2023-04-15T15:12:35;100677.19;;;16.45
59339;BMP280;45117;50.960;5.500;2023-04-15T15:15:03;100679.19;;;16.54
59339;BMP280;45117;50.960;5.500;2023-04-15T15:17:29;100669.72;;;17.24
59339;BMP280;45117;50.960;5.500;2023-04-15T15:19:56;100675.91;;;16.81
59339;BMP280;45117;50.960;5.500;2023-04-15T15:22:22;100681.72;;;17.14
59339;BMP280;45117;50.960;5.500;2023-04-15T15:24:50;100680.19;;;16.69
59339;BMP280;45117;50.960;5.500;2023-04-15T15:27:17;100696.47;;;16.47
59339;BMP280;45117;50.960;5.500;2023-04-15T15:29:45;100701.88;;;16.47
59339;BMP280;45117;50.960;5.500;2023-04-15T15:32:13;100691.78;;;16.01
59339;BMP280;45117;50.960;5.500;2023-04-15T15:34:39;100706.31;;;15.81
59339;BMP280;45117;50.960;5.500;2023-04-15T15:37:06;100707.09;;;15.82
59339;BMP280;45117;50.960;5.500;2023-04-15T15:39:33;100716.28;;;15.59
59339;BMP280;45117;50.960;5.500;2023-04-15T15:42:00;100715.06;;;15.47
59339;BMP280;45117;50.960;5.500;2023-04-15T15:44:26;100712.91;;;15.13
59339;BMP280;45117;50.960;5.500;2023-04-15T15:46:54;100731.44;;;15.44
59339;BMP280;45117;50.960;5.500;2023-04-15T15:49:21;100728.13;;;14.94
59339;BMP280;45117;50.960;5.500;2023-04-15T15:51:49;100735.13;;;15.21
59339;BMP280;45117;50.960;5.500;2023-04-15T15:54:16;100729.69;;;15.50
59339;BMP280;45117;50.960;5.500;2023-04-15T15:56:42;100733.47;;;15.52
59339;BMP280;45117;50.960;5.500;2023-04-15T15:59:09;100736.31;;;15.20
59339;BMP280;45117;50.960;5.500;2023-04-15T16:01:35;100743.97;;;15.09
59339;BMP280;45117;50.960;5.500;2023-04-15T16:04:04;100749.69;;;15.11
59339;BMP280;45117;50.960;5.500;2023-04-15T16:06:30;100748.19;;;15.10
59339;BMP280;45117;50.960;5.500;2023-04-15T16:08:57;100760.09;;;15.12
59339;BMP280;45117;50.960;5.500;2023-04-15T16:11:23;100756.44;;;15.19
59339;BMP280;45117;50.960;5.500;2023-04-15T16:13:51;100752.78;;;14.96
59339;BMP280;45117;50.960;5.500;2023-04-15T16:16:18;100763.13;;;14.85
59339;BMP280;45117;50.960;5.500;2023-04-15T16:18:45;100765.84;;;14.69
59339;BMP280;45117;50.960;5.500;2023-04-15T16:21:13;100770.88;;;14.83
59339;BMP280;45117;50.960;5.500;2023-04-15T16:23:39;100772.22;;;14.91
59339;BMP280;45117;50.960;5.500;2023-04-15T16:26:06;100769.34;;;14.98
59339;BMP280;45117;50.960;5.500;2023-04-15T16:28:32;100772.00;;;15.15
59339;BMP280;45117;50.960;5.500;2023-04-15T16:30:59;100785.06;;;14.87
59339;BMP280;45117;50.960;5.500;2023-04-15T16:33:25;100781.00;;;14.95
59339;BMP280;45117;50.960;5.500;2023-04-15T16:35:52;100791.06;;;14.79
59339;BMP280;45117;50.960;5.500;2023-04-15T16:38:20;100788.97;;;14.70
59339;BMP280;45117;50.960;5.500;2023-04-15T16:40:46;100789.09;;;14.95
59339;BMP280;45117;50.960;5.500;2023-04-15T16:43:13;100806.34;;;14.36
59339;BMP280;45117;50.960;5.500;2023-04-15T16:45:39;100805.19;;;14.01
59339;BMP280;45117;50.960;5.500;2023-04-15T16:48:08;100816.41;;;13.80
59339;BMP280;45117;50.960;5.500;2023-04-15T16:50:35;100827.53;;;13.62
59339;BMP280;45117;50.960;5.500;2023-04-15T16:53:02;100825.84;;;13.48
59339;BMP280;45117;50.960;5.500;2023-04-15T16:55:29;100838.78;;;13.37
59339;BMP280;45117;50.960;5.500;2023-04-15T16:57:56;100840.75;;;13.13
59339;BMP280;45117;50.960;5.500;2023-04-15T17:00:22;100845.16;;;13.00
59339;BMP280;45117;50.960;5.500;2023-04-15T17:02:49;100840.50;;;13.04
59339;BMP280;45117;50.960;5.500;2023-04-15T17:05:16;100855.94;;;13.00
59339;BMP280;45117;50.960;5.500;2023-04-15T17:07:42;100849.38;;;13.01
59339;BMP280;45117;50.960;5.500;2023-04-15T17:10:09;100853.69;;;12.95
59339;BMP280;45117;50.960;5.500;2023-04-15T17:12:39;100863.34;;;12.96
59339;BMP280;45117;50.960;5.500;2023-04-15T17:15:07;100871.81;;;12.94
59339;BMP280;45117;50.960;5.500;2023-04-15T17:17:35;100863.59;;;12.78
59339;BMP280;45117;50.960;5.500;2023-04-15T17:20:01;100862.16;;;12.70
59339;BMP280;45117;50.960;5.500;2023-04-15T17:22:28;100864.97;;;12.63
59339;BMP280;45117;50.960;5.500;2023-04-15T17:24:55;100871.59;;;12.55
59339;BMP280;45117;50.960;5.500;2023-04-15T17:27:22;100882.69;;;12.60
59339;BMP280;45117;50.960;5.500;2023-04-15T17:29:50;100880.16;;;12.50
59339;BMP280;45117;50.960;5.500;2023-04-15T17:32:16;100882.28;;;12.62
59339;BMP280;45117;50.960;5.500;2023-04-15T17:34:43;100887.81;;;12.51
59339;BMP280;45117;50.960;5.500;2023-04-15T17:37:09;100881.03;;;12.40
59339;BMP280;45117;50.960;5.500;2023-04-15T17:39:36;100888.41;;;12.32
59339;BMP280;45117;50.960;5.500;2023-04-15T17:42:02;100894.81;;;12.45
59339;BMP280;45117;50.960;5.500;2023-04-15T17:44:29;100898.34;;;12.38
59339;BMP280;45117;50.960;5.500;2023-04-15T17:46:57;100901.91;;;12.28
59339;BMP280;45117;50.960;5.500;2023-04-15T17:49:23;100910.63;;;12.09
59339;BMP280;45117;50.960;5.500;2023-04-15T17:51:50;100913.03;;;12.00
59339;BMP280;45117;50.960;5.500;2023-04-15T17:54:19;100907.25;;;11.98
59339;BMP280;45117;50.960;5.500;2023-04-15T17:56:45;100920.06;;;11.87
59339;BMP280;45117;50.960;5.500;2023-04-15T17:59:13;100918.22;;;11.76
59339;BMP280;45117;50.960;5.500;2023-04-15T18:01:40;100926.69;;;11.75
59339;BMP280;45117;50.960;5.500;2023-04-15T18:04:07;100918.69;;;11.68
59339;BMP280;45117;50.960;5.500;2023-04-15T18:06:34;100924.09;;;11.61
59339;BMP280;45117;50.960;5.500;2023-04-15T18:09:01;100930.75;;;11.49
59339;BMP280;45117;50.960;5.500;2023-04-15T18:11:27;100930.38;;;11.47
59339;BMP280;45117;50.960;5.500;2023-04-15T18:13:54;100932.38;;;11.36
59339;BMP280;45117;50.960;5.500;2023-04-15T18:16:20;100946.63;;;11.29
59339;BMP280;45117;50.960;5.500;2023-04-15T18:18:47;100934.75;;;11.23
59339;BMP280;45117;50.960;5.500;2023-04-15T18:21:15;100942.47;;;11.17
59339;BMP280;45117;50.960;5.500;2023-04-15T18:23:41;100945.19;;;11.10
59339;BMP280;45117;50.960;5.500;2023-04-15T18:26:08;100962.16;;;10.97
59339;BMP280;45117;50.960;5.500;2023-04-15T18:28:34;100957.97;;;10.96
59339;BMP280;45117;50.960;5.500;2023-04-15T18:31:01;100972.19;;;10.89
59339;BMP280;45117;50.960;5.500;2023-04-15T18:33:28;100969.13;;;10.83
59339;BMP280;45117;50.960;5.500;2023-04-15T18:35:55;100970.72;;;10.70
59339;BMP280;45117;50.960;5.500;2023-04-15T18:38:23;100979.53;;;10.67
59339;BMP280;45117;50.960;5.500;2023-04-15T18:40:49;100993.34;;;10.69
59339;BMP280;45117;50.960;5.500;2023-04-15T18:43:16;100996.81;;;10.59
59339;BMP280;45117;50.960;5.500;2023-04-15T18:45:42;100995.69;;;10.49
59339;BMP280;45117;50.960;5.500;2023-04-15T18:48:09;100994.16;;;10.48
59339;BMP280;45117;50.960;5.500;2023-04-15T18:50:36;100999.53;;;10.45
59339;BMP280;45117;50.960;5.500;2023-04-15T18:53:03;101011.03;;;10.34
59339;BMP280;45117;50.960;5.500;2023-04-15T18:55:30;101009.13;;;10.31
59339;BMP280;45117;50.960;5.500;2023-04-15T18:57:57;101015.25;;;10.25
59339;BMP280;45117;50.960;5.500;2023-04-15T19:00:24;101013.72;;;10.24
59339;BMP280;45117;50.960;5.500;2023-04-15T19:02:51;101015.66;;;10.23
59339;BMP280;45117;50.960;5.500;2023-04-15T19:05:18;101023.31;;;10.21
59339;BMP280;45117;50.960;5.500;2023-04-15T19:07:44;101022.56;;;10.21
59339;BMP280;45117;50.960;5.500;2023-04-15T19:10:11;101026.75;;;10.15
59339;BMP280;45117;50.960;5.500;2023-04-15T19:12:38;101028.31;;;10.16
59339;BMP280;45117;50.960;5.500;2023-04-15T19:15:06;101032.50;;;10.09
59339;BMP280;45117;50.960;5.500;2023-04-15T19:17:33;101038.66;;;10.03
59339;BMP280;45117;50.960;5.500;2023-04-15T19:19:59;101035.22;;;10.02
59339;BMP280;45117;50.960;5.500;2023-04-15T19:22:28;101042.88;;;10.04
59339;BMP280;45117;50.960;5.500;2023-04-15T19:24:55;101052.44;;;9.98
59339;BMP280;45117;50.960;5.500;2023-04-15T19:27:22;101045.13;;;9.91
59339;BMP280;45117;50.960;5.500;2023-04-15T19:29:50;101054.72;;;9.92
59339;BMP280;45117;50.960;5.500;2023-04-15T19:32:16;101051.66;;;9.87
59339;BMP280;45117;50.960;5.500;2023-04-15T19:34:43;101055.09;;;9.87
59339;BMP280;45117;50.960;5.500;2023-04-15T19:37:10;101058.19;;;9.86
59339;BMP280;45117;50.960;5.500;2023-04-15T19:39:36;101066.19;;;9.82
59339;BMP280;45117;50.960;5.500;2023-04-15T19:42:03;101057.00;;;9.79
59339;BMP280;45117;50.960;5.500;2023-04-15T19:44:29;101068.88;;;9.78
59339;BMP280;45117;50.960;5.500;2023-04-15T19:46:57;101069.66;;;9.79
59339;BMP280;45117;50.960;5.500;2023-04-15T19:49:24;101071.94;;;9.77
59339;BMP280;45117;50.960;5.500;2023-04-15T19:51:51;101082.66;;;9.77
59339;BMP280;45117;50.960;5.500;2023-04-15T19:54:17;101074.59;;;9.73
59339;BMP280;45117;50.960;5.500;2023-04-15T19:56:43;101086.47;;;9.72
59339;BMP280;45117;50.960;5.500;2023-04-15T19:59:10;101091.84;;;9.72
59339;BMP280;45117;50.960;5.500;2023-04-15T20:01:37;101091.03;;;9.72
59339;BMP280;45117;50.960;5.500;2023-04-15T20:04:05;101087.25;;;9.69
59339;BMP280;45117;50.960;5.500;2023-04-15T20:06:32;101085.69;;;9.65
59339;BMP280;45117;50.960;5.500;2023-04-15T20:08:58;101090.28;;;9.61
59339;BMP280;45117;50.960;5.500;2023-04-15T20:11:25;101105.59;;;9.60
59339;BMP280;45117;50.960;5.500;2023-04-15T20:13:54;101107.44;;;9.52
59339;BMP280;45117;50.960;5.500;2023-04-15T20:16:20;101106.28;;;9.46
59339;BMP280;45117;50.960;5.500;2023-04-15T20:18:46;101103.59;;;9.46
59339;BMP280;45117;50.960;5.500;2023-04-15T20:21:14;101099.78;;;9.47
59339;BMP280;45117;50.960;5.500;2023-04-15T20:23:41;101103.97;;;9.45
59339;BMP280;45117;50.960;5.500;2023-04-15T20:26:07;101103.56;;;9.36
59339;BMP280;45117;50.960;5.500;2023-04-15T20:28:34;101108.50;;;9.30
59339;BMP280;45117;50.960;5.500;2023-04-15T20:31:00;101109.28;;;9.31
59339;BMP280;45117;50.960;5.500;2023-04-15T20:33:27;101106.19;;;9.29
59339;BMP280;45117;50.960;5.500;2023-04-15T20:35:54;101104.28;;;9.29
59339;BMP280;45117;50.960;5.500;2023-04-15T20:38:22;101103.84;;;9.20
59339;BMP280;45117;50.960;5.500;2023-04-15T20:40:48;101102.28;;;9.15
59339;BMP280;45117;50.960;5.500;2023-04-15T20:43:15;101100.38;;;9.16
59339;BMP280;45117;50.960;5.500;2023-04-15T20:45:42;101104.94;;;9.08
59339;BMP280;45117;50.960;5.500;2023-04-15T20:48:08;101115.25;;;9.06
59339;BMP280;45117;50.960;5.500;2023-04-15T20:50:35;101111.38;;;9.00
59339;BMP280;45117;50.960;5.500;2023-04-15T20:53:01;101114.47;;;9.02
59339;BMP280;45117;50.960;5.500;2023-04-15T20:55:30;101120.97;;;9.01
59339;BMP280;45117;50.960;5.500;2023-04-15T20:57:57;101113.25;;;8.96
59339;BMP280;45117;50.960;5.500;2023-04-15T21:00:24;101116.72;;;8.93
59339;BMP280;45117;50.960;5.500;2023-04-15T21:02:50;101124.31;;;8.91
59339;BMP280;45117;50.960;5.500;2023-04-15T21:05:17;101126.25;;;8.90
59339;BMP280;45117;50.960;5.500;2023-04-15T21:07:43;101124.69;;;8.86
59339;BMP280;45117;50.960;5.500;2023-04-15T21:10:10;101122.03;;;8.89
59339;BMP280;45117;50.960;5.500;2023-04-15T21:12:38;101134.22;;;8.87
59339;BMP280;45117;50.960;5.500;2023-04-15T21:15:06;101135.78;;;8.84
59339;BMP280;45117;50.960;5.500;2023-04-15T21:17:32;101131.09;;;8.78
59339;BMP280;45117;50.960;5.500;2023-04-15T21:19:59;101130.38;;;8.81
59339;BMP280;45117;50.960;5.500;2023-04-15T21:22:26;101137.22;;;8.75
59339;BMP280;45117;50.960;5.500;2023-04-15T21:24:53;101131.47;;;8.73
59339;BMP280;45117;50.960;5.500;2023-04-15T21:27:19;101142.56;;;8.75
59339;BMP280;45117;50.960;5.500;2023-04-15T21:29:47;101141.81;;;8.74
59339;BMP280;45117;50.960;5.500;2023-04-15T21:32:13;101154.03;;;8.72
59339;BMP280;45117;50.960;5.500;2023-04-15T21:34:40;101144.84;;;8.73
59339;BMP280;45117;50.960;5.500;2023-04-15T21:37:07;101147.84;;;8.67
59339;BMP280;45117;50.960;5.500;2023-04-15T21:39:33;101145.94;;;8.68
59339;BMP280;45117;50.960;5.500;2023-04-15T21:42:00;101148.66;;;8.72
59339;BMP280;45117;50.960;5.500;2023-04-15T21:44:27;101147.84;;;8.67
59339;BMP280;45117;50.960;5.500;2023-04-15T21:46:54;101157.41;;;8.68
59339;BMP280;45117;50.960;5.500;2023-04-15T21:49:21;101160.88;;;8.69
59339;BMP280;45117;50.960;5.500;2023-04-15T21:51:47;101155.09;;;8.63
59339;BMP280;45117;50.960;5.500;2023-04-15T21:54:14;101162.34;;;8.66
59339;BMP280;45117;50.960;5.500;2023-04-15T21:56:40;101175.38;;;8.64
59339;BMP280;45117;50.960;5.500;2023-04-15T21:59:07;101170.41;;;8.63
59339;BMP280;45117;50.960;5.500;2023-04-15T22:01:34;101170.38;;;8.66
59339;BMP280;45117;50.960;5.500;2023-04-15T22:04:02;101168.09;;;8.65
59339;BMP280;45117;50.960;5.500;2023-04-15T22:06:30;101178.84;;;8.68
59339;BMP280;45117;50.960;5.500;2023-04-15T22:08:56;101177.63;;;8.62
59339;BMP280;45117;50.960;5.500;2023-04-15T22:11:23;101169.19;;;8.60
59339;BMP280;45117;50.960;5.500;2023-04-15T22:13:51;101178.41;;;8.66
59339;BMP280;45117;50.960;5.500;2023-04-15T22:16:18;101174.56;;;8.60
59339;BMP280;45117;50.960;5.500;2023-04-15T22:18:44;101173.03;;;8.59
59339;BMP280;45117;50.960;5.500;2023-04-15T22:21:12;101175.31;;;8.61
59339;BMP280;45117;50.960;5.500;2023-04-15T22:23:39;101179.09;;;8.56
59339;BMP280;45117;50.960;5.500;2023-04-15T22:26:06;101177.53;;;8.52
59339;BMP280;45117;50.960;5.500;2023-04-15T22:28:32;101179.03;;;8.49
59339;BMP280;45117;50.960;5.500;2023-04-15T22:30:59;101180.50;;;8.43
59339;BMP280;45117;50.960;5.500;2023-04-15T22:33:28;101182.34;;;8.35
59339;BMP280;45117;50.960;5.500;2023-04-15T22:35:55;101186.88;;;8.31
59339;BMP280;45117;50.960;5.500;2023-04-15T22:38:23;101188.06;;;8.34
59339;BMP280;45117;50.960;5.500;2023-04-15T22:40:50;101200.97;;;8.28
59339;BMP280;45117;50.960;5.500;2023-04-15T22:43:18;101207.03;;;8.22
59339;BMP280;45117;50.960;5.500;2023-04-15T22:45:48;101204.69;;;8.20
59339;BMP280;45117;50.960;5.500;2023-04-15T22:48:14;101202.84;;;8.24
59339;BMP280;45117;50.960;5.500;2023-04-15T22:50:41;101207.06;;;8.25
59339;BMP280;45117;50.960;5.500;2023-04-15T22:53:08;101215.75;;;8.19
59339;BMP280;45117;50.960;5.500;2023-04-15T22:55:36;101208.84;;;8.14
59339;BMP280;45117;50.960;5.500;2023-04-15T22:58:02;101212.66;;;8.13
59339;BMP280;45117;50.960;5.500;2023-04-15T23:00:29;101222.16;;;8.10
59339;BMP280;45117;50.960;5.500;2023-04-15T23:02:55;101225.97;;;8.09
59339;BMP280;45117;50.960;5.500;2023-04-15T23:05:21;101229.78;;;8.08
59339;BMP280;45117;50.960;5.500;2023-04-15T23:07:48;101224.47;;;8.12
59339;BMP280;45117;50.960;5.500;2023-04-15T23:10:14;101231.31;;;8.09
59339;BMP280;45117;50.960;5.500;2023-04-15T23:12:42;101235.91;;;8.09
59339;BMP280;45117;50.960;5.500;2023-04-15T23:15:10;101228.97;;;8.04
59339;BMP280;45117;50.960;5.500;2023-04-15T23:17:36;101232.41;;;8.05
59339;BMP280;45117;50.960;5.500;2023-04-15T23:20:03;101233.91;;;8.02
59339;BMP280;45117;50.960;5.500;2023-04-15T23:22:30;101240.63;;;7.93
59339;BMP280;45117;50.960;5.500;2023-04-15T23:24:56;101241.00;;;7.91
59339;BMP280;45117;50.960;5.500;2023-04-15T23:27:23;101234.13;;;7.90
59339;BMP280;45117;50.960;5.500;2023-04-15T23:29:50;101247.78;;;7.85
59339;BMP280;45117;50.960;5.500;2023-04-15T23:32:17;101249.66;;;7.81
59339;BMP280;45117;50.960;5.500;2023-04-15T23:34:43;101247.78;;;7.85
59339;BMP280;45117;50.960;5.500;2023-04-15T23:37:10;101254.63;;;7.82
59339;BMP280;45117;50.960;5.500;2023-04-15T23:39:36;101257.72;;;7.84
59339;BMP280;45117;50.960;5.500;2023-04-15T23:42:03;101256.94;;;7.84
59339;BMP280;45117;50.960;5.500;2023-04-15T23:44:29;101253.84;;;7.82
59339;BMP280;45117;50.960;5.500;2023-04-15T23:46:57;101251.09;;;7.75
59339;BMP280;45117;50.960;5.500;2023-04-15T23:49:24;101259.13;;;7.75
59339;BMP280;45117;50.960;5.500;2023-04-15T23:51:50;101256.16;;;7.80
59339;BMP280;45117;50.960;5.500;2023-04-15T23:54:17;101256.00;;;7.73
59339;BMP280;45117;50.960;5.500;2023-04-15T23:56:43;101254.44;;;7.68
59339;BMP280;45117;50.960;5.500;2023-04-15T23:59:10;101261.34;;;7.73
